Impacts METAR Board
IDs:

KDTW - Detroit Metro/Wayne, MI, US

Updated at: 0200 UTC 27 Jun 2019
Potential Impact None Slight Moderate High
Time 26/14Z 26/15Z 26/16Z 26/17Z 26/18Z 26/19Z 26/20Z 26/21Z 26/22Z 26/23Z 27/00Z 27/01Z 27/02Z
Temp76 80 83 84 84 86 86 87 86 85 84 80 77
Dewpt63 63 59 57 57 57 57 57 57 56 55 56 56
Altim30.04 30.05 30.06 30.07 30.06 30.07 30.06 30.05 30.05 30.05 30.06 30.06 30.08
VIS10 10 10 10 10 10 10 10 10 10 10 10 10
CIG-- -- -- 70 70 -- -- -- -- -- -- 220 220
CoverSCTFEWSCTBKNBKNSCTSCTSCTSCTSCTSCTBKNBKN
FltCatVFRVFRVFRVFRVFRVFRVFRVFRVFRVFRVFRVFRVFR
WX--------------------------
WDir230260280280300290250250270280260270270
WSpd8 6 11 12 7 11 11 12 9 9 10 5 5
WGst-- -- 16 -- -- 19 20 19 -- -- -- -- --
Raw hourly METARs
KDTW 261353Z 23008KT 10SM SCT250 24/17 A3004 RMK AO2 SLP168 T02440172
KDTW 261453Z 26006KT 10SM FEW040 FEW250 27/17 A3005 RMK AO2 SLP171 T02670172 51014
KDTW 261553Z 28011G16KT 10SM SCT045 SCT250 28/15 A3006 RMK AO2 SLP173 T02830150
KDTW 261653Z 28012KT 10SM FEW045 BKN070 BKN250 29/14 A3007 RMK AO2 SLP178 T02890139
KDTW 261753Z 30007KT 10SM BKN070 BKN250 29/14 A3006 RMK AO2 SLP174 T02890139 10294 20222 50002
KDTW 261853Z 29011G19KT 10SM SCT070 SCT250 30/14 A3007 RMK AO2 SLP176 T03000139
KDTW 261953Z 25011G20KT 10SM SCT070 SCT250 30/14 A3006 RMK AO2 SLP176 T03000139
KDTW 262053Z 25012G19KT 10SM SCT070 SCT250 31/14 A3005 RMK AO2 SLP173 T03060139 58002
KDTW 262153Z 27009KT 10SM FEW070 SCT250 30/14 A3005 RMK AO2 SLP171 T03000139
KDTW 262253Z 28009KT 10SM FEW070 SCT250 29/13 A3005 RMK AO2 SLP172 T02940133
KDTW 262353Z 26010KT 10SM FEW070 SCT250 29/13 A3006 RMK AO2 SLP174 T02890128 10306 20283 53001
KDTW 270053Z 27005KT 10SM BKN220 27/13 A3006 RMK AO2 SLP176 T02670133
KDTW 270153Z 27005KT 10SM BKN220 25/13 A3008 RMK AO2 SLP183 T02500133



Page loaded:  02:25 UTC  |   07:25 PM Pacific  |   08:25 PM Mountain  |   09:25 PM Central  |   10:25 PM Eastern

 

ADVISORIES

FORECASTS

FORECASTS

OBSERVATIONS

USER TOOLS

ABOUT US